createdAt,value
2018-04-11T00:00:59.281Z,15.86
2018-04-11T00:01:59.278Z,15.84
2018-04-11T00:02:59.287Z,15.83
2018-04-11T00:03:59.295Z,15.86
2018-04-11T00:04:59.298Z,15.71
2018-04-11T00:05:59.301Z,15.64
2018-04-11T00:06:59.313Z,15.64
2018-04-11T00:07:59.325Z,15.62
2018-04-11T00:08:59.372Z,15.67
2018-04-11T00:09:59.310Z,15.59
2018-04-11T00:10:59.333Z,15.64
2018-04-11T00:11:59.322Z,15.67
2018-04-11T00:12:59.332Z,15.59
2018-04-11T00:13:59.331Z,15.60
2018-04-11T00:14:59.329Z,15.57
2018-04-11T00:15:59.330Z,15.60
2018-04-11T00:16:59.333Z,15.56
2018-04-11T00:17:59.347Z,15.59
2018-04-11T00:18:59.356Z,15.65
2018-04-11T00:19:59.355Z,15.62
2018-04-11T00:20:59.353Z,15.65
2018-04-11T00:21:59.344Z,15.69
2018-04-11T00:22:59.361Z,15.74
2018-04-11T00:23:59.374Z,15.71
2018-04-11T00:24:59.360Z,15.78
2018-04-11T00:25:59.368Z,15.83
2018-04-11T00:26:59.399Z,15.86
2018-04-11T00:27:59.378Z,15.93
2018-04-11T00:28:59.385Z,15.90
2018-04-11T00:29:59.384Z,15.92
2018-04-11T00:30:59.388Z,16.02
2018-04-11T00:31:59.456Z,16.09
2018-04-11T00:32:59.385Z,16.08
2018-04-11T00:33:59.392Z,16.11
2018-04-11T00:34:59.391Z,16.21
2018-04-11T00:35:59.397Z,16.09
2018-04-11T00:36:59.398Z,16.04
2018-04-11T00:37:59.403Z,16.12
2018-04-11T00:38:59.398Z,16.05
2018-04-11T00:39:59.406Z,16.07
2018-04-11T00:40:59.403Z,16.01
2018-04-11T00:41:59.411Z,16.02
2018-04-11T00:42:59.428Z,16.00
2018-04-11T00:43:59.432Z,16.02
2018-04-11T00:44:59.435Z,16.00
2018-04-11T00:45:59.426Z,16.02
2018-04-11T00:46:59.428Z,15.92
2018-04-11T00:47:59.441Z,15.92
2018-04-11T00:49:00.397Z,15.84
2018-04-11T00:49:59.451Z,15.83
2018-04-11T00:50:59.466Z,15.87
2018-04-11T00:51:59.453Z,15.72
2018-04-11T00:52:59.526Z,15.76
2018-04-11T00:53:59.483Z,15.72
2018-04-11T00:54:59.467Z,15.65
2018-04-11T00:55:59.465Z,15.62
2018-04-11T00:56:59.465Z,15.62
2018-04-11T00:57:59.467Z,15.64
2018-04-11T00:58:59.473Z,15.57
2018-04-11T00:59:59.469Z,15.47
2018-04-11T01:00:59.482Z,15.60
2018-04-11T01:01:59.490Z,15.60
2018-04-11T01:02:59.487Z,15.59
2018-04-11T01:03:59.496Z,15.50
2018-04-11T01:04:59.483Z,15.41
2018-04-11T01:05:59.494Z,15.39
2018-04-11T01:06:59.498Z,15.35
2018-04-11T01:07:59.510Z,15.38
2018-04-11T01:08:59.508Z,15.34
2018-04-11T01:09:59.501Z,15.36
2018-04-11T01:10:59.513Z,15.23
2018-04-11T01:11:59.535Z,15.23
2018-04-11T01:12:59.553Z,15.16
2018-04-11T01:13:59.536Z,15.19
2018-04-11T01:14:59.523Z,15.19
2018-04-11T01:15:59.535Z,15.23
2018-04-11T01:16:59.529Z,15.11
2018-04-11T01:17:59.532Z,15.14
2018-04-11T01:18:59.537Z,15.09
2018-04-11T01:19:59.558Z,15.11
2018-04-11T01:20:59.543Z,14.98
2018-04-11T01:21:59.547Z,15.09
2018-04-11T01:22:59.555Z,14.95
2018-04-11T01:23:59.543Z,15.07
2018-04-11T01:24:59.569Z,15.09
2018-04-11T01:25:59.571Z,14.95
2018-04-11T01:26:59.564Z,15.02
2018-04-11T01:27:59.555Z,15.01
2018-04-11T01:28:59.575Z,14.99
2018-04-11T01:29:59.569Z,15.03
2018-04-11T01:30:59.567Z,15.03
2018-04-11T01:31:59.577Z,14.92
2018-04-11T01:32:59.581Z,14.89
2018-04-11T01:33:59.591Z,14.84
2018-04-11T01:34:59.587Z,14.84
2018-04-11T01:35:59.595Z,14.88
2018-04-11T01:36:59.590Z,14.81
2018-04-11T01:37:59.598Z,14.83
2018-04-11T01:38:59.610Z,14.80
2018-04-11T01:39:59.600Z,14.73
2018-04-11T01:40:59.596Z,14.81
2018-04-11T01:41:59.625Z,14.73
2018-04-11T01:42:59.673Z,14.73
2018-04-11T01:43:59.605Z,14.72
2018-04-11T01:44:59.653Z,14.73
2018-04-11T01:45:59.623Z,14.70
2018-04-11T01:46:59.630Z,14.64
2018-04-11T01:47:59.630Z,14.68
2018-04-11T01:48:59.631Z,14.62
2018-04-11T01:49:59.629Z,14.61
2018-04-11T01:50:59.638Z,14.60
2018-04-11T01:51:59.635Z,14.64
2018-04-11T01:52:59.641Z,14.55
2018-04-11T01:53:59.648Z,14.64
2018-04-11T01:54:59.635Z,14.52
2018-04-11T01:55:59.661Z,14.54
2018-04-11T01:56:59.651Z,14.47
2018-04-11T01:57:59.666Z,14.45
2018-04-11T01:58:59.670Z,14.42
2018-04-11T01:59:59.664Z,14.33
2018-04-11T02:00:59.660Z,14.40
2018-04-11T02:01:59.662Z,14.37
2018-04-11T02:02:59.666Z,14.33
2018-04-11T02:03:59.676Z,14.33
2018-04-11T02:04:59.666Z,14.29
2018-04-11T02:05:59.679Z,14.33
2018-04-11T02:06:59.676Z,14.22
2018-04-11T02:07:59.689Z,14.21
2018-04-11T02:08:59.696Z,14.25
2018-04-11T02:09:59.702Z,14.24
2018-04-11T02:10:59.703Z,14.22
2018-04-11T02:11:59.695Z,14.25
2018-04-11T02:12:59.720Z,14.27
2018-04-11T02:13:59.707Z,14.33
2018-04-11T02:14:59.699Z,14.21
2018-04-11T02:15:59.702Z,14.18
2018-04-11T02:16:59.719Z,14.10
2018-04-11T02:17:59.719Z,14.12
2018-04-11T02:18:59.720Z,14.06
2018-04-11T02:19:59.715Z,14.09
2018-04-11T02:20:59.735Z,14.09
2018-04-11T02:21:59.735Z,14.07
2018-04-11T02:22:59.723Z,14.12
2018-04-11T02:23:59.729Z,14.04
2018-04-11T02:25:00.426Z,13.97
2018-04-11T02:25:59.731Z,13.97
2018-04-11T02:26:59.751Z,13.95
2018-04-11T02:27:59.746Z,14.03
2018-04-11T02:28:59.742Z,13.95
2018-04-11T02:29:59.745Z,13.99
2018-04-11T02:30:59.806Z,13.92
2018-04-11T02:31:59.774Z,13.92
2018-04-11T02:32:59.764Z,13.95
2018-04-11T02:33:59.757Z,13.88
2018-04-11T02:35:00.426Z,13.81
2018-04-11T02:35:59.768Z,13.82
2018-04-11T02:36:59.788Z,13.84
2018-04-11T02:37:59.765Z,13.81
2018-04-11T02:38:59.768Z,13.81
2018-04-11T02:39:59.788Z,13.82
2018-04-11T02:40:59.785Z,13.79
2018-04-11T02:41:59.784Z,13.75
2018-04-11T02:42:59.789Z,13.67
2018-04-11T02:43:59.794Z,13.69
2018-04-11T02:44:59.787Z,13.59
2018-04-11T02:45:59.799Z,13.62
2018-04-11T02:46:59.824Z,13.60
2018-04-11T02:47:59.816Z,13.60
2018-04-11T02:48:59.814Z,13.55
2018-04-11T02:49:59.801Z,13.57
2018-04-11T02:50:59.800Z,13.62
2018-04-11T02:51:59.807Z,13.67
2018-04-11T02:52:59.834Z,13.57
2018-04-11T02:53:59.907Z,13.51
2018-04-11T02:54:59.813Z,13.54
2018-04-11T02:55:59.811Z,13.49
2018-04-11T02:56:59.827Z,13.45
2018-04-11T02:57:59.840Z,13.48
2018-04-11T02:58:59.834Z,13.49
2018-04-11T02:59:59.830Z,13.44
2018-04-11T03:00:59.830Z,13.42
2018-04-11T03:01:59.839Z,13.29
2018-04-11T03:02:59.871Z,13.17
2018-04-11T03:03:59.846Z,13.12
2018-04-11T03:04:59.845Z,13.22
2018-04-11T03:05:59.839Z,13.25
2018-04-11T03:06:59.849Z,13.15
2018-04-11T03:07:59.852Z,13.12
2018-04-11T03:08:59.852Z,13.25
2018-04-11T03:09:59.858Z,13.11
2018-04-11T03:10:59.861Z,13.08
2018-04-11T03:11:59.872Z,13.05
2018-04-11T03:12:59.870Z,12.90
2018-04-11T03:13:59.875Z,12.90
2018-04-11T03:14:59.905Z,13.00
2018-04-11T03:15:59.873Z,12.93
2018-04-11T03:16:59.884Z,12.96
2018-04-11T03:17:59.882Z,12.89
2018-04-11T03:18:59.902Z,12.93
2018-04-11T03:19:59.879Z,12.95
2018-04-11T03:20:59.927Z,13.00
2018-04-11T03:21:59.898Z,13.01
2018-04-11T03:22:59.887Z,12.77
2018-04-11T03:24:35.512Z,12.85
2018-04-11T03:26:34.497Z,12.85
2018-04-11T03:28:08.495Z,12.90
2018-04-11T03:28:32.010Z,12.87
2018-04-11T03:29:32.011Z,12.87
2018-04-11T03:32:11.714Z,12.79
2018-04-11T03:46:59.789Z,12.35
2018-04-11T03:47:59.761Z,12.27
2018-04-11T03:49:00.252Z,12.37
2018-04-11T03:50:01.291Z,12.42
2018-04-11T03:51:06.756Z,12.41
2018-04-11T03:52:05.246Z,12.27
2018-04-11T03:52:59.796Z,12.35
2018-04-11T03:53:59.761Z,12.35
2018-04-11T03:54:59.780Z,12.39
2018-04-11T03:55:59.776Z,12.38
2018-04-11T03:57:59.773Z,12.34
2018-04-11T03:59:59.776Z,12.32
2018-04-11T04:02:31.935Z,12.32
2018-04-11T04:03:31.898Z,12.28
2018-04-11T04:04:31.907Z,12.28
2018-04-11T04:05:31.921Z,12.31
2018-04-11T04:06:31.898Z,12.20
2018-04-11T04:07:31.905Z,12.28
2018-04-11T04:08:31.896Z,12.31
2018-04-11T04:09:31.905Z,12.34
2018-04-11T04:10:31.910Z,12.29
2018-04-11T04:11:31.912Z,12.21
2018-04-11T04:12:31.921Z,12.27
2018-04-11T04:13:31.919Z,12.19
2018-04-11T04:14:31.921Z,12.28
2018-04-11T04:15:31.923Z,12.14
2018-04-11T04:16:31.926Z,12.21
2018-04-11T04:17:31.927Z,12.17
2018-04-11T04:18:32.883Z,12.27
2018-04-11T04:19:31.931Z,12.16
2018-04-11T04:20:31.932Z,12.23
2018-04-11T04:21:31.944Z,12.20
2018-04-11T04:22:31.943Z,12.12
2018-04-11T04:23:31.930Z,12.20
2018-04-11T04:24:31.944Z,12.17
2018-04-11T04:25:31.950Z,12.28
2018-04-11T04:26:31.953Z,12.13
2018-04-11T04:27:31.941Z,12.17
2018-04-11T04:28:31.952Z,12.17
2018-04-11T04:29:31.960Z,12.21
2018-04-11T04:30:32.005Z,12.17
2018-04-11T04:31:31.959Z,12.05
2018-04-11T04:32:31.962Z,12.07
2018-04-11T04:33:31.965Z,12.14
2018-04-11T04:34:31.969Z,12.04
2018-04-11T04:35:31.978Z,12.04
2018-04-11T04:36:31.970Z,12.02
2018-04-11T04:37:31.968Z,12.02
2018-04-11T04:38:32.896Z,12.05
2018-04-11T04:39:32.885Z,12.13
2018-04-11T04:40:31.975Z,12.01
2018-04-11T04:41:31.991Z,12.04
2018-04-11T04:42:31.983Z,11.99
2018-04-11T04:43:31.998Z,11.95
2018-04-11T04:44:31.993Z,11.99
2018-04-11T04:45:32.000Z,12.04
2018-04-11T04:46:32.007Z,12.04
2018-04-11T04:47:31.996Z,12.01
2018-04-11T04:48:32.006Z,12.04
2018-04-11T04:49:31.997Z,12.02
2018-04-11T04:50:31.997Z,11.91
2018-04-11T04:51:32.021Z,11.91
2018-04-11T04:52:32.015Z,11.96
2018-04-11T04:53:32.000Z,11.90
2018-04-11T04:54:32.022Z,11.80
2018-04-11T04:55:32.016Z,11.78
2018-04-11T04:56:32.006Z,11.90
2018-04-11T04:57:32.025Z,11.76
2018-04-11T04:58:32.025Z,11.80
2018-04-11T04:59:32.011Z,11.82
2018-04-11T05:00:32.033Z,11.86
2018-04-11T05:01:32.025Z,11.85
2018-04-11T05:02:32.028Z,11.72
2018-04-11T05:03:32.032Z,11.70
2018-04-11T05:04:32.035Z,11.80
2018-04-11T05:05:32.046Z,11.65
2018-04-11T05:06:32.894Z,11.75
2018-04-11T05:07:32.039Z,11.76
2018-04-11T05:10:05.132Z,11.86
2018-04-11T05:11:04.633Z,11.86
2018-04-11T05:12:05.135Z,11.83
2018-04-11T05:13:05.139Z,11.62
2018-04-11T05:14:04.153Z,11.70
2018-04-11T05:15:05.146Z,11.73
2018-04-11T05:16:06.141Z,11.64
2018-04-11T05:17:04.219Z,11.64
2018-04-11T05:18:05.136Z,11.69
2018-04-11T05:19:04.161Z,11.67
2018-04-11T05:20:05.163Z,11.61
2018-04-11T05:21:06.139Z,11.60
2018-04-11T05:22:06.134Z,11.57
2018-04-11T05:23:05.632Z,11.58
2018-04-11T05:24:05.148Z,11.51
2018-04-11T05:25:04.183Z,11.57
2018-04-11T05:26:04.719Z,11.29
2018-04-11T05:27:05.153Z,11.42
2018-04-11T05:28:05.143Z,11.39
2018-04-11T05:29:05.145Z,11.61
2018-04-11T05:30:05.136Z,11.64
2018-04-11T05:31:05.631Z,11.72
2018-04-11T05:32:05.136Z,11.80
2018-04-11T05:33:05.632Z,11.79
2018-04-11T05:34:05.138Z,11.91
2018-04-11T05:35:05.636Z,11.88
2018-04-11T05:36:04.239Z,11.78
2018-04-11T05:37:05.153Z,11.83
2018-04-11T05:38:05.141Z,11.95
2018-04-11T05:39:05.138Z,12.04
2018-04-11T05:40:04.282Z,12.28
2018-04-11T05:41:05.214Z,12.41
2018-04-11T05:42:05.140Z,12.52
2018-04-11T05:43:05.136Z,12.53
2018-04-11T05:44:05.137Z,12.54
2018-04-11T05:45:05.160Z,12.70
2018-04-11T05:46:04.220Z,12.74
2018-04-11T05:47:05.149Z,12.79
2018-04-11T05:48:04.216Z,12.86
2018-04-11T05:49:04.248Z,12.65
2018-04-11T05:50:04.228Z,12.67
2018-04-11T05:51:04.251Z,12.70
2018-04-11T05:52:05.144Z,12.87
2018-04-11T05:53:05.143Z,12.82
2018-04-11T05:54:04.238Z,12.79
2018-04-11T05:55:04.246Z,12.70
2018-04-11T05:56:04.247Z,12.65
2018-04-11T05:57:04.246Z,12.56
2018-04-11T05:58:04.264Z,12.52
2018-04-11T05:59:04.250Z,12.64
2018-04-11T06:00:04.260Z,12.60
2018-04-11T06:01:04.304Z,12.67
2018-04-11T06:02:04.271Z,12.56
2018-04-11T06:03:05.173Z,12.64
2018-04-11T06:04:04.273Z,12.71
2018-04-11T06:05:04.263Z,13.22
2018-04-11T06:06:04.261Z,13.38
2018-04-11T06:07:04.279Z,13.25
2018-04-11T06:08:04.274Z,13.26
2018-04-11T06:09:04.263Z,13.36
2018-04-11T06:10:04.291Z,13.41
2018-04-11T06:11:04.282Z,13.85
2018-04-11T06:12:04.300Z,14.24
2018-04-11T06:13:04.318Z,14.20
2018-04-11T06:14:04.820Z,14.36
2018-04-11T06:15:04.311Z,14.28
2018-04-11T06:16:04.306Z,14.68
2018-04-11T06:17:04.359Z,14.81
2018-04-11T06:18:04.296Z,15.51
2018-04-11T06:19:04.309Z,16.02
2018-04-11T06:20:04.310Z,16.11
2018-04-11T06:21:04.316Z,16.28
2018-04-11T06:22:04.312Z,16.96
2018-04-11T06:23:04.337Z,16.96
2018-04-11T06:24:05.148Z,16.75
2018-04-11T06:25:04.309Z,17.34
2018-04-11T06:26:04.419Z,18.02
2018-04-11T06:27:04.334Z,17.90
2018-04-11T06:28:04.500Z,18.29
2018-04-11T06:29:04.356Z,17.90
2018-04-11T06:30:04.344Z,17.86
2018-04-11T06:31:04.359Z,18.27
2018-04-11T06:32:04.360Z,18.69
2018-04-11T06:33:04.340Z,18.55
2018-04-11T06:34:04.372Z,18.42
2018-04-11T06:35:04.364Z,18.26
2018-04-11T06:36:04.380Z,18.21
2018-04-11T06:37:04.396Z,17.66
2018-04-11T06:38:04.416Z,18.02
2018-04-11T06:39:04.388Z,18.57
2018-04-11T06:40:04.388Z,19.14
2018-04-11T06:41:04.434Z,19.59
2018-04-11T06:42:04.432Z,19.40
2018-04-11T06:43:04.386Z,19.29
2018-04-11T06:44:04.398Z,19.41
2018-04-11T06:45:04.424Z,19.66
2018-04-11T06:46:04.462Z,19.87
2018-04-11T06:47:05.250Z,20.39
2018-04-11T06:48:04.461Z,20.32
2018-04-11T06:49:06.867Z,19.62
2018-04-11T06:50:04.466Z,18.82
2018-04-11T06:51:04.504Z,17.79
2018-04-11T06:52:04.598Z,17.78
2018-04-11T06:53:04.421Z,17.52
2018-04-11T06:54:04.477Z,17.16
2018-04-11T06:55:04.437Z,17.08
2018-04-11T06:56:04.460Z,16.70
2018-04-11T06:57:04.459Z,16.30
2018-04-11T06:58:04.452Z,16.15
2018-04-11T06:59:04.462Z,15.74
2018-04-11T07:00:04.479Z,16.46
2018-04-11T07:01:04.592Z,16.94
2018-04-11T07:02:04.489Z,16.88
2018-04-11T07:03:04.497Z,17.66
2018-04-11T07:04:04.560Z,17.51
2018-04-11T07:05:04.508Z,17.38
2018-04-11T07:06:04.511Z,16.73
2018-04-11T07:07:04.537Z,17.49
2018-04-11T07:08:04.511Z,17.86
2018-04-11T07:09:04.504Z,17.62
2018-04-11T07:10:04.523Z,17.01
2018-04-11T07:11:04.544Z,17.36
2018-04-11T07:12:05.257Z,17.79
2018-04-11T07:13:04.538Z,18.42
2018-04-11T07:14:05.261Z,18.12
2018-04-11T07:15:04.563Z,18.47
2018-04-11T07:16:04.549Z,17.14
2018-04-11T07:17:04.541Z,17.97
2018-04-11T07:18:04.558Z,18.69
2018-04-11T07:19:04.639Z,18.88
2018-04-11T07:20:04.621Z,18.62
2018-04-11T07:21:04.595Z,18.94
2018-04-11T07:22:04.598Z,18.55
2018-04-11T07:23:04.583Z,17.46
2018-04-11T07:24:04.594Z,17.89
2018-04-11T07:25:04.604Z,18.32
2018-04-11T07:26:04.598Z,18.41
2018-04-11T07:27:04.832Z,17.72
2018-04-11T07:28:04.647Z,17.55
2018-04-11T07:29:04.637Z,18.41
2018-04-11T07:30:04.687Z,19.40
2018-04-11T07:31:04.658Z,20.26
2018-04-11T07:32:04.666Z,20.73
2018-04-11T07:33:04.699Z,21.16
2018-04-11T07:34:05.331Z,20.88
2018-04-11T07:37:00.989Z,20.88
2018-04-11T07:37:59.995Z,20.85
2018-04-11T07:40:31.633Z,19.68
2018-04-11T07:41:31.614Z,20.08
2018-04-11T07:42:31.616Z,20.03
2018-04-11T07:43:31.637Z,20.08
2018-04-11T07:44:31.816Z,20.21
2018-04-11T07:45:31.649Z,19.77
2018-04-11T07:46:31.659Z,19.47
2018-04-11T07:47:32.156Z,19.96
2018-04-11T07:48:31.637Z,20.58
2018-04-11T07:49:31.638Z,21.44
2018-04-11T07:50:31.640Z,21.25
2018-04-11T07:51:31.685Z,21.47
2018-04-11T07:52:31.709Z,20.62
2018-04-11T07:53:31.762Z,20.57
2018-04-11T07:54:32.839Z,20.76
2018-04-11T07:55:31.685Z,20.84
2018-04-11T07:56:31.725Z,19.68
2018-04-11T07:57:31.713Z,20.61
2018-04-11T07:58:31.762Z,19.54
2018-04-11T07:59:31.778Z,19.32
2018-04-11T08:00:31.768Z,19.40
2018-04-11T08:01:31.764Z,19.71
2018-04-11T08:02:31.767Z,18.94
2018-04-11T08:03:31.817Z,19.58
2018-04-11T08:04:31.792Z,19.54
2018-04-11T08:05:31.774Z,19.98
2018-04-11T08:06:31.804Z,20.99
2018-04-11T08:07:31.807Z,21.65
2018-04-11T08:08:31.837Z,22.02
2018-04-11T08:09:31.838Z,22.91
2018-04-11T08:10:32.568Z,23.12
2018-04-11T08:11:31.889Z,22.58
2018-04-11T08:12:31.842Z,22.51
2018-04-11T08:13:31.851Z,22.09
2018-04-11T08:14:31.881Z,22.60
2018-04-11T08:15:31.958Z,22.52
2018-04-11T08:16:31.905Z,21.79
2018-04-11T08:17:31.895Z,21.69
2018-04-11T08:18:31.895Z,22.62
2018-04-11T08:19:31.994Z,22.47
2018-04-11T08:20:31.923Z,21.59
2018-04-11T08:21:31.942Z,22.37
2018-04-11T08:22:31.965Z,21.84
2018-04-11T08:23:32.009Z,22.21
2018-04-11T08:24:32.485Z,21.64
2018-04-11T08:25:32.585Z,21.46
2018-04-11T08:26:32.532Z,22.05
2018-04-11T08:27:34.321Z,22.27
2018-04-11T08:28:32.136Z,22.17
2018-04-11T08:29:32.014Z,22.45
2018-04-11T08:30:32.080Z,21.96
2018-04-11T08:31:32.574Z,21.31
2018-04-11T08:32:32.064Z,22.03
2018-04-11T08:33:32.078Z,22.14
2018-04-11T08:34:32.070Z,21.83
2018-04-11T08:35:32.095Z,22.35
2018-04-11T08:36:32.116Z,23.53
2018-04-11T08:37:32.100Z,23.94
2018-04-11T08:38:32.114Z,23.63
2018-04-11T08:39:32.140Z,24.05
2018-04-11T08:40:32.378Z,23.02
2018-04-11T08:41:32.218Z,23.20
2018-04-11T08:42:32.754Z,23.13
2018-04-11T08:43:32.201Z,22.65
2018-04-11T08:44:32.257Z,23.70
2018-04-11T08:45:32.244Z,24.24
2018-04-11T08:46:32.208Z,24.30
2018-04-11T08:47:32.318Z,23.69
2018-04-11T08:48:35.483Z,23.09
2018-04-11T08:49:32.533Z,23.51
2018-04-11T08:50:32.613Z,23.61
2018-04-11T08:51:32.385Z,23.04
2018-04-11T08:52:32.405Z,22.09
2018-04-11T08:53:32.373Z,21.98
2018-04-11T08:54:32.346Z,22.51
2018-04-11T08:55:32.489Z,22.09
2018-04-11T08:56:32.369Z,21.46
2018-04-11T08:57:33.106Z,21.32
2018-04-11T08:58:32.502Z,21.69
2018-04-11T08:59:32.619Z,22.15
2018-04-11T09:00:32.601Z,22.20
2018-04-11T09:01:32.472Z,21.91
2018-04-11T09:02:32.537Z,22.07
2018-04-11T09:03:32.537Z,22.64
2018-04-11T09:04:32.702Z,22.64
2018-04-11T09:05:32.627Z,22.07
2018-04-11T09:06:32.537Z,21.50
2018-04-11T09:07:32.683Z,22.15
2018-04-11T09:08:32.668Z,22.70
2018-04-11T09:09:32.811Z,22.75
2018-04-11T09:10:33.117Z,22.77
2018-04-11T09:11:32.784Z,21.92
2018-04-11T09:12:33.110Z,22.64
2018-04-11T09:13:32.643Z,23.33
2018-04-11T09:14:32.668Z,23.65
2018-04-11T09:15:32.728Z,23.66
2018-04-11T09:16:32.838Z,23.65
2018-04-11T09:17:32.799Z,23.83
2018-04-11T09:18:33.466Z,24.15
2018-04-11T09:19:32.763Z,24.13
2018-04-11T09:20:32.836Z,24.80
2018-04-11T09:21:32.702Z,25.09
2018-04-11T09:22:32.821Z,24.99
2018-04-11T09:23:32.965Z,24.60
2018-04-11T09:24:32.854Z,24.47
2018-04-11T09:25:32.823Z,24.37
2018-04-11T09:26:32.902Z,23.91
2018-04-11T09:27:33.619Z,23.95
2018-04-11T09:28:32.789Z,23.76
2018-04-11T09:29:33.622Z,24.40
2018-04-11T09:30:32.882Z,23.58
2018-04-11T09:31:32.822Z,22.91
2018-04-11T09:32:32.994Z,22.95
2018-04-11T09:33:32.976Z,23.05
2018-04-11T09:34:33.608Z,23.35
2018-04-11T09:35:33.525Z,23.58
2018-04-11T09:36:33.127Z,23.02
2018-04-11T09:37:33.055Z,23.65
2018-04-11T09:38:32.977Z,23.70
2018-04-11T09:39:33.019Z,24.21
2018-04-11T09:40:33.335Z,24.49
2018-04-11T09:41:33.149Z,24.47
2018-04-11T09:42:33.624Z,24.06
2018-04-11T09:43:33.158Z,24.24
2018-04-11T09:45:33.123Z,24.24
2018-04-11T09:46:33.187Z,22.92
2018-04-11T09:47:33.152Z,23.04
2018-04-11T09:48:33.171Z,22.90
2018-04-11T09:49:33.219Z,23.35
2018-04-11T09:50:33.339Z,23.15
2018-04-11T09:51:33.185Z,22.61
2018-04-11T09:52:33.245Z,23.39
2018-04-11T09:53:33.247Z,23.57
2018-04-11T09:54:33.222Z,24.21
2018-04-11T09:55:33.923Z,24.25
2018-04-11T09:56:33.433Z,24.49
2018-04-11T09:57:34.201Z,24.42
2018-04-11T09:58:33.804Z,24.47
2018-04-11T09:59:33.391Z,24.22
2018-04-11T10:00:33.309Z,23.66
2018-04-11T10:01:33.344Z,23.09
2018-04-11T10:02:33.505Z,22.67
2018-04-11T10:03:33.343Z,23.28
2018-04-11T10:04:33.365Z,23.58
2018-04-11T10:05:33.389Z,24.28
2018-04-11T10:06:34.142Z,24.31
2018-04-11T10:07:35.147Z,25.20
2018-04-11T10:08:33.454Z,24.73
2018-04-11T10:09:33.487Z,25.09
2018-04-11T10:10:33.471Z,23.98
2018-04-11T10:11:33.595Z,22.77
2018-04-11T10:12:33.524Z,22.17
2018-04-11T10:13:33.505Z,22.25
2018-04-11T10:14:33.600Z,23.16
2018-04-11T10:15:33.556Z,22.94
2018-04-11T10:16:33.563Z,23.31
2018-04-11T10:17:33.668Z,23.61
2018-04-11T10:18:33.615Z,24.77
2018-04-11T10:19:34.150Z,25.82
2018-04-11T10:20:33.606Z,25.36
2018-04-11T10:21:33.709Z,25.70
2018-04-11T10:22:33.667Z,25.46
2018-04-11T10:23:33.709Z,24.76
2018-04-11T10:24:33.680Z,23.63
2018-04-11T10:25:33.690Z,24.31
2018-04-11T10:26:33.751Z,23.60
2018-04-11T10:27:33.813Z,23.04
2018-04-11T10:28:33.826Z,22.42
2018-04-11T10:29:34.672Z,22.95
2018-04-11T10:30:33.817Z,23.36
2018-04-11T10:31:34.669Z,22.65
2018-04-11T10:32:33.919Z,22.20
2018-04-11T10:33:33.894Z,22.57
2018-04-11T10:34:33.875Z,22.37
2018-04-11T10:35:33.953Z,22.58
2018-04-11T10:36:33.984Z,22.06
2018-04-11T10:37:33.939Z,22.39
2018-04-11T10:38:33.940Z,21.88
2018-04-11T10:39:34.027Z,20.92
2018-04-11T10:40:33.986Z,20.58
2018-04-11T10:41:34.067Z,19.86
2018-04-11T10:42:33.973Z,19.94
2018-04-11T10:43:34.102Z,19.83
2018-04-11T10:44:34.208Z,19.66
2018-04-11T10:45:34.049Z,19.51
2018-04-11T10:46:34.668Z,19.08
2018-04-11T10:47:34.082Z,19.54
2018-04-11T10:48:34.076Z,19.44
2018-04-11T10:49:34.056Z,19.23
2018-04-11T10:50:34.178Z,19.26
2018-04-11T10:51:34.129Z,19.33
2018-04-11T10:52:34.177Z,19.43
2018-04-11T10:53:34.254Z,19.54
2018-04-11T10:54:34.215Z,19.59
2018-04-11T10:57:46.613Z,19.76
